| time (UTC) | temp C | wind direction | speed KPH | gust KPH | rain 1hr cm | rain 24hr cm | rain mn cm | humidity % | barometer mb |
| 20260509143704 | 17 | 293 | 4.8 | 9.7 | 0.00 | 4.22 | 4.22 | 75 | 1011.8 |
| 20260509143204 | 18 | 349 | 4.8 | 14.5 | 0.00 | 4.22 | 4.22 | 76 | 1011.8 |
| 20260509141704 | 17 | 355 | 8.0 | 14.5 | 0.00 | 4.22 | 4.22 | 78 | 1011.8 |
| 20260509141205 | 17 | 19 | 4.8 | 12.9 | 0.00 | 4.22 | 4.22 | 78 | 1011.8 |
| 20260509140704 | 17 | 22 | 3.2 | 4.8 | 0.00 | 4.22 | 4.22 | 77 | 1011.8 |
| 20260509140204 | 17 | 31 | 3.2 | 8.0 | 0.00 | 4.22 | 4.22 | 76 | 1011.8 |
| 20260509134704 | 17 | 299 | 4.8 | 12.9 | 0.00 | 4.22 | 4.22 | 82 | 1011.8 |
| 20260509134204 | 16 | 288 | 3.2 | 4.8 | 0.00 | 4.22 | 4.22 | 84 | 1011.7 |
| 20260509133705 | 16 | 312 | 1.6 | 8.0 | 0.00 | 4.22 | 4.22 | 86 | 1011.7 |
| 20260509133204 | 16 | 292 | 1.6 | 8.0 | 0.00 | 4.22 | 4.22 | 87 | 1011.7 |
| 20260509131705 | 15 | 121 | 1.6 | 4.8 | 0.10 | 4.22 | 4.22 | 94 | 1011.6 |
| 20260509130704 | 15 | 192 | 0.0 | 0.0 | 0.18 | 4.22 | 4.22 | 95 | 1011.4 |
| 20260509130204 | 15 | 82 | 0.0 | 0.0 | 0.23 | 4.22 | 4.22 | 95 | 1011.4 |
| 20260509124704 | 15 | 86 | 0.0 | 0.0 | 0.41 | 4.22 | 4.22 | 95 | 1011.5 |
| 20260509123704 | 14 | 90 | 1.6 | 4.8 | 0.53 | 4.22 | 4.22 | 94 | 1011.7 |
| 20260509121704 | 14 | 286 | 0.0 | 0.0 | 1.19 | 4.11 | 4.11 | 94 | 1013.1 |
| 20260509121204 | 14 | 286 | 0.0 | 0.0 | 1.27 | 4.09 | 4.09 | 94 | 1013.1 |
| 20260509120704 | 13 | 287 | 1.6 | 4.8 | 1.45 | 4.04 | 4.04 | 94 | 1013.1 |
| 20260509120204 | 13 | 287 | 3.2 | 4.8 | 1.50 | 3.99 | 3.99 | 94 | 1013.3 |
| 20260509114705 | 13 | 5 | 0.0 | 0.0 | 1.45 | 3.81 | 3.81 | 94 | 1013.2 |
| 20260509114205 | 14 | 10 | 0.0 | 0.0 | 1.45 | 3.76 | 3.76 | 94 | 1013.1 |
| 20260509113704 | 14 | 19 | 0.0 | 4.8 | 1.40 | 3.68 | 3.68 | 94 | 1013.0 |
| 20260509111705 | 14 | 257 | 8.0 | 12.9 | 0.79 | 2.92 | 2.92 | 94 | 1013.5 |
| 20260509111204 | 14 | 263 | 3.2 | 4.8 | 0.69 | 2.79 | 2.79 | 95 | 1013.4 |
| 20260509110704 | 14 | 260 | 4.8 | 11.3 | 0.51 | 2.59 | 2.59 | 94 | 1013.3 |
| 20260509110204 | 14 | 225 | 4.8 | 11.3 | 0.43 | 2.49 | 2.49 | 94 | 1013.1 |
| 20260509104704 | 14 | 293 | 0.0 | 0.0 | 0.38 | 2.36 | 2.36 | 94 | 1012.7 |
| 20260509104204 | 14 | 293 | 3.2 | 4.8 | 0.38 | 2.31 | 2.31 | 94 | 1012.6 |
| 20260509103704 | 15 | 355 | 0.0 | 0.0 | 0.38 | 2.29 | 2.29 | 94 | 1012.3 |
| 20260509103204 | 15 | 0 | 0.0 | 0.0 | 0.48 | 2.24 | 2.24 | 94 | 1012.2 |
| 20260509101705 | 15 | 0 | 0.0 | 3.2 | 0.43 | 2.13 | 2.13 | 94 | 1011.9 |
| 20260509101204 | 15 | 0 | 1.6 | 3.2 | 0.43 | 2.11 | 2.11 | 94 | 1011.9 |
| 20260509100704 | 15 | 0 | 0.0 | 3.2 | 0.43 | 2.11 | 2.11 | 94 | 1011.7 |
| 20260509100205 | 15 | 0 | 1.6 | 3.2 | 0.43 | 2.06 | 2.06 | 94 | 1011.7 |
| 20260509094705 | 15 | 5 | 0.0 | 0.0 | 0.58 | 1.98 | 1.98 | 94 | 1012.1 |
| 20260509093204 | 14 | 43 | 0.0 | 4.8 | 0.58 | 1.75 | 1.75 | 94 | 1011.7 |
| 20260509091705 | 14 | 33 | 1.6 | 4.8 | 0.69 | 1.70 | 1.70 | 94 | 1011.4 |
| 20260509091204 | 14 | 4 | 3.2 | 4.8 | 0.74 | 1.70 | 1.70 | 94 | 1011.1 |
| 20260509090204 | 15 | 23 | 4.8 | 12.9 | 0.79 | 1.63 | 1.63 | 93 | 1010.4 |
| 20260509084705 | 15 | 56 | 0.0 | 0.0 | 0.79 | 1.40 | 1.40 | 93 | 1011.9 |
| 20260509084204 | 15 | 55 | 0.0 | 0.0 | 0.79 | 1.32 | 1.32 | 93 | 1011.8 |
| 20260509083704 | 15 | 103 | 0.0 | 0.0 | 0.79 | 1.24 | 1.24 | 93 | 1011.4 |
| 20260509081704 | 15 | 277 | 0.0 | 0.0 | 0.89 | 1.02 | 1.02 | 92 | 1011.3 |
| 20260509080704 | 15 | 246 | 0.0 | 0.0 | 0.86 | 0.89 | 0.89 | 92 | 1011.8 |
| 20260509080204 | 15 | 246 | 0.0 | 0.0 | 0.81 | 0.84 | 0.84 | 92 | 1011.9 |
| 20260509074704 | 15 | 246 | 0.0 | 0.0 | 0.61 | 0.61 | 0.61 | 91 | 1012.1 |
| 20260509074204 | 15 | 243 | 0.0 | 0.0 | 0.53 | 0.53 | 0.53 | 91 | 1012.3 |
| 20260509073704 | 15 | 243 | 0.0 | 0.0 | 0.46 | 0.46 | 0.46 | 90 | 1012.3 |
| 20260509073204 | 15 | 243 | 0.0 | 4.8 | 0.36 | 0.36 | 0.36 | 90 | 1012.0 |
| 20260509071205 | 15 | 34 | 0.0 | 0.0 | 0.05 | 0.05 | 0.05 | 89 | 1012.1 |
| 20260509070704 | 15 | 34 | 0.0 | 0.0 | 0.05 | 0.05 | 0.05 | 89 | 1012.1 |
| 20260509064704 | 15 | 5 | 1.6 | 3.2 | 0.00 | 0.00 | 0.00 | 88 | 1011.5 |
| 20260509064204 | 15 | 5 | 3.2 | 4.8 | 0.00 | 0.00 | 0.00 | 88 | 1011.5 |
| 20260509063704 | 15 | 217 | 1.6 | 3.2 | 0.00 | 0.00 | 0.00 | 88 | 1011.9 |
| 20260509063204 | 15 | 215 | 1.6 | 4.8 | 0.00 | 0.00 | 0.00 | 88 | 1012.3 |
| 20260509061704 | 15 | 46 | 0.0 | 0.0 | 0.00 | 0.00 | 0.00 | 89 | 1011.8 |
| 20260509061204 | 15 | 46 | 0.0 | 0.0 | 0.00 | 0.00 | 0.00 | 89 | 1011.0 |
| 20260509060705 | 15 | 46 | 0.0 | 0.0 | 0.00 | 0.00 | 0.00 | 89 | 1011.0 |
| 20260509060204 | 15 | 46 | 1.6 | 4.8 | 0.00 | 0.00 | 0.00 | 90 | 1011.0 |
| 20260509054704 | 15 | 325 | 0.0 | 0.0 | 0.00 | 0.00 | 0.00 | 90 | 1011.1 |
| 20260509054204 | 15 | 325 | 0.0 | 0.0 | 0.00 | 0.00 | 0.00 | 90 | 1011.3 |
| 20260509053704 | 15 | 325 | 0.0 | 0.0 | 0.00 | 0.00 | 0.00 | 90 | 1011.3 |
| 20260509053204 | 15 | 325 | 0.0 | 0.0 | 0.00 | 0.00 | 0.00 | 90 | 1011.5 |
| 20260509051704 | 15 | 325 | 0.0 | 0.0 | 0.00 | 0.00 | 0.00 | 90 | 1011.7 |
| 20260509051204 | 15 | 325 | 0.0 | 0.0 | 0.00 | 0.00 | 0.00 | 90 | 1011.9 |
| 20260509050704 | 15 | 324 | 0.0 | 0.0 | 0.00 | 0.00 | 0.00 | 90 | 1011.9 |
| 20260509050205 | 15 | 324 | 0.0 | 4.8 | 0.00 | 0.00 | 0.00 | 90 | 1011.9 |
| 20260509044704 | 15 | 356 | 0.0 | 0.0 | 0.00 | 0.00 | 0.00 | 90 | 1011.6 |
| 20260509044204 | 15 | 355 | 0.0 | 0.0 | 0.00 | 0.00 | 0.00 | 90 | 1011.6 |
| 20260509043704 | 15 | 355 | 0.0 | 0.0 | 0.00 | 0.00 | 0.00 | 90 | 1011.4 |
| 20260509043204 | 15 | 351 | 0.0 | 0.0 | 0.00 | 0.00 | 0.00 | 90 | 1011.3 |
| 20260509041704 | 15 | 351 | 0.0 | 0.0 | 0.00 | 0.00 | 0.00 | 90 | 1011.1 |
| 20260509041204 | 15 | 355 | 1.6 | 4.8 | 0.00 | 0.00 | 0.00 | 90 | 1011.2 |
| 20260509040704 | 15 | 339 | 0.0 | 4.8 | 0.00 | 0.00 | 0.00 | 90 | 1011.2 |
| 20260509040204 | 15 | 338 | 0.0 | 4.8 | 0.00 | 0.00 | 0.00 | 90 | 1011.3 |
| 20260509034704 | 15 | 308 | 0.0 | 0.0 | 0.00 | 0.00 | 0.00 | 90 | 1011.5 |
| 20260509034204 | 15 | 308 | 0.0 | 0.0 | 0.00 | 0.00 | 0.00 | 90 | 1011.6 |
| 20260509033704 | 15 | 305 | 0.0 | 0.0 | 0.00 | 0.00 | 0.00 | 90 | 1011.6 |
| 20260509031704 | 15 | 306 | 0.0 | 0.0 | 0.00 | 0.00 | 0.00 | 90 | 1011.6 |
| 20260509031204 | 15 | 306 | 0.0 | 0.0 | 0.00 | 0.00 | 0.00 | 91 | 1011.7 |
| 20260509030703 | 15 | 306 | 0.0 | 0.0 | 0.00 | 0.00 | 0.00 | 90 | 1011.7 |
| 20260509030205 | 15 | 306 | 0.0 | 0.0 | 0.00 | 0.00 | 0.00 | 91 | 1011.6 |
| 20260509024704 | 15 | 306 | 0.0 | 0.0 | 0.00 | 0.00 | 0.00 | 91 | 1011.7 |
| 20260509024204 | 15 | 306 | 0.0 | 0.0 | 0.00 | 0.00 | 0.00 | 90 | 1011.8 |
| 20260509023704 | 15 | 306 | 0.0 | 0.0 | 0.00 | 0.00 | 0.00 | 90 | 1011.8 |
| 20260509023204 | 15 | 306 | 0.0 | 0.0 | 0.00 | 0.00 | 0.00 | 90 | 1012.0 |
| 20260509021704 | 15 | 306 | 0.0 | 0.0 | 0.00 | 0.00 | 0.00 | 90 | 1011.9 |
| 20260509021203 | 15 | 306 | 0.0 | 0.0 | 0.00 | 0.00 | 0.00 | 90 | 1011.9 |
| 20260509020704 | 15 | 305 | 0.0 | 0.0 | 0.00 | 0.00 | 0.00 | 90 | 1011.9 |
| 20260509020204 | 15 | 305 | 0.0 | 0.0 | 0.00 | 0.00 | 0.00 | 90 | 1012.0 |
| 20260509014704 | 15 | 215 | 0.0 | 0.0 | 0.00 | 0.00 | 0.00 | 89 | 1012.1 |
| 20260509014204 | 15 | 215 | 0.0 | 0.0 | 0.00 | 0.00 | 0.00 | 89 | 1012.2 |
| 20260509013704 | 15 | 214 | 0.0 | 0.0 | 0.00 | 0.00 | 0.00 | 89 | 1012.3 |
| 20260509013204 | 15 | 214 | 0.0 | 0.0 | 0.00 | 0.00 | 0.00 | 89 | 1012.3 |
| 20260509011704 | 15 | 214 | 0.0 | 0.0 | 0.00 | 0.00 | 0.00 | 89 | 1012.6 |
| 20260509011204 | 15 | 214 | 0.0 | 0.0 | 0.00 | 0.00 | 0.00 | 89 | 1012.7 |
| 20260509010705 | 15 | 214 | 1.6 | 4.8 | 0.00 | 0.00 | 0.00 | 90 | 1012.8 |
| 20260509004704 | 15 | 32 | 0.0 | 0.0 | 0.00 | 0.00 | 0.00 | 89 | 1013.0 |
| 20260509004204 | 15 | 32 | 0.0 | 0.0 | 0.00 | 0.00 | 0.00 | 89 | 1013.1 |
| 20260509003704 | 15 | 32 | 0.0 | 0.0 | 0.00 | 0.00 | 0.00 | 89 | 1013.2 |
| 20260509003204 | 15 | 32 | 0.0 | 0.0 | 0.00 | 0.00 | 0.00 | 89 | 1013.2 |
| 20260509001204 | 15 | 32 | 0.0 | 0.0 | 0.00 | 0.00 | 0.00 | 89 | 1013.3 |
| 20260509000704 | 15 | 32 | 0.0 | 0.0 | 0.00 | 0.00 | 0.00 | 89 | 1013.4 |
| 20260509000204 | 15 | 30 | 0.0 | 0.0 | 0.00 | 0.00 | 0.00 | 89 | 1013.4 |
| 20260508234705 | 15 | 30 | 0.0 | 0.0 | 0.00 | 0.00 | 0.00 | 88 | 1013.5 |
| 20260508234205 | 15 | 30 | 0.0 | 0.0 | 0.00 | 0.00 | 0.00 | 88 | 1013.6 |
| 20260508233705 | 15 | 30 | 0.0 | 0.0 | 0.00 | 0.00 | 0.00 | 88 | 1013.7 |
| 20260508233205 | 15 | 25 | 0.0 | 0.0 | 0.00 | 0.00 | 0.00 | 88 | 1013.7 |
| 20260508231705 | 15 | 25 | 0.0 | 0.0 | 0.00 | 0.00 | 0.00 | 87 | 1013.5 |
| 20260508231205 | 15 | 25 | 0.0 | 0.0 | 0.00 | 0.00 | 0.00 | 87 | 1013.5 |
| 20260508230705 | 15 | 25 | 0.0 | 0.0 | 0.00 | 0.00 | 0.00 | 87 | 1013.5 |
| 20260508230205 | 15 | 25 | 0.0 | 0.0 | 0.00 | 0.00 | 0.00 | 87 | 1013.7 |
| 20260508224205 | 15 | 25 | 0.0 | 0.0 | 0.00 | 0.00 | 0.00 | 86 | 1013.8 |
| 20260508223705 | 15 | 24 | 0.0 | 0.0 | 0.00 | 0.00 | 0.00 | 86 | 1013.8 |
| 20260508223204 | 15 | 24 | 0.0 | 0.0 | 0.00 | 0.00 | 0.00 | 85 | 1013.9 |
| 20260508221705 | 16 | 24 | 0.0 | 0.0 | 0.00 | 0.00 | 0.00 | 85 | 1013.8 |
| 20260508221205 | 16 | 24 | 0.0 | 0.0 | 0.00 | 0.00 | 0.00 | 84 | 1013.9 |
| 20260508220705 | 16 | 24 | 0.0 | 0.0 | 0.00 | 0.00 | 0.00 | 84 | 1013.7 |
| 20260508220205 | 16 | 24 | 1.6 | 3.2 | 0.00 | 0.00 | 0.00 | 84 | 1013.7 |
| 20260508214705 | 16 | 25 | 0.0 | 0.0 | 0.00 | 0.00 | 0.00 | 83 | 1013.8 |
| 20260508214205 | 16 | 24 | 0.0 | 0.0 | 0.00 | 0.00 | 0.00 | 83 | 1013.7 |
| 20260508213705 | 16 | 24 | 0.0 | 0.0 | 0.00 | 0.00 | 0.00 | 83 | 1013.8 |
| 20260508213205 | 16 | 24 | 0.0 | 0.0 | 0.00 | 0.00 | 0.00 | 83 | 1013.8 |
| 20260508211705 | 16 | 24 | 0.0 | 0.0 | 0.00 | 0.00 | 0.00 | 83 | 1013.7 |
| 20260508210705 | 16 | 24 | 0.0 | 0.0 | 0.00 | 0.00 | 0.00 | 82 | 1013.7 |
| 20260508210204 | 16 | 25 | 0.0 | 0.0 | 0.00 | 0.00 | 0.00 | 82 | 1013.7 |
| 20260508204205 | 16 | 24 | 1.6 | 3.2 | 0.00 | 0.00 | 0.00 | 81 | 1013.5 |
| 20260508203705 | 17 | 24 | 0.0 | 0.0 | 0.00 | 0.00 | 0.00 | 81 | 1013.5 |
| 20260508203205 | 17 | 24 | 0.0 | 0.0 | 0.00 | 0.00 | 0.00 | 80 | 1013.6 |
| 20260508201706 | 17 | 24 | 0.0 | 0.0 | 0.00 | 0.00 | 0.00 | 79 | 1013.3 |
| 20260508200705 | 17 | 15 | 0.0 | 0.0 | 0.00 | 0.00 | 0.00 | 80 | 1013.1 |
| 20260508200206 | 17 | 15 | 0.0 | 4.8 | 0.00 | 0.00 | 0.00 | 80 | 1013.1 |
| 20260508193705 | 17 | 36 | 0.0 | 0.0 | 0.00 | 0.03 | 0.00 | 78 | 1012.9 |
| 20260508193205 | 17 | 36 | 0.0 | 3.2 | 0.00 | 0.03 | 0.00 | 77 | 1012.9 |
| 20260508191705 | 18 | 129 | 1.6 | 4.8 | 0.00 | 0.08 | 0.00 | 77 | 1012.7 |
| 20260508191205 | 18 | 138 | 1.6 | 4.8 | 0.00 | 0.10 | 0.00 | 77 | 1012.7 |
| 20260508190705 | 18 | 119 | 1.6 | 4.8 | 0.00 | 0.13 | 0.00 | 77 | 1012.8 |
| 20260508190205 | 18 | 43 | 3.2 | 8.0 | 0.00 | 0.18 | 0.00 | 76 | 1012.7 |
| 20260508184705 | 18 | 77 | 0.0 | 1.6 | 0.00 | 0.25 | 0.00 | 74 | 1012.5 |
| 20260508184205 | 18 | 77 | 0.0 | 4.8 | 0.00 | 0.25 | 0.00 | 74 | 1012.4 |
| 20260508183705 | 18 | 122 | 0.0 | 3.2 | 0.00 | 0.30 | 0.00 | 74 | 1012.4 |
| 20260508181205 | 19 | 88 | 1.6 | 4.8 | 0.00 | 0.33 | 0.00 | 70 | 1012.0 |
| 20260508180705 | 19 | 100 | 1.6 | 4.8 | 0.00 | 0.33 | 0.00 | 70 | 1011.9 |
| 20260508180205 | 19 | 51 | 0.0 | 4.8 | 0.00 | 0.33 | 0.00 | 71 | 1011.9 |
| 20260508174705 | 20 | 34 | 1.6 | 4.8 | 0.00 | 0.33 | 0.00 | 69 | 1011.8 |
| 20260508174205 | 20 | 93 | 0.0 | 4.8 | 0.00 | 0.33 | 0.00 | 68 | 1011.8 |
| 20260508173705 | 20 | 92 | 0.0 | 0.0 | 0.00 | 0.33 | 0.00 | 67 | 1011.9 |
| 20260508173205 | 20 | 101 | 1.6 | 4.8 | 0.00 | 0.33 | 0.00 | 67 | 1011.9 |
| 20260508171705 | 20 | 98 | 3.2 | 8.0 | 0.00 | 0.33 | 0.00 | 67 | 1011.8 |
| 20260508170705 | 20 | 79 | 3.2 | 4.8 | 0.00 | 0.33 | 0.00 | 68 | 1011.7 |
| 20260508170205 | 20 | 123 | 1.6 | 11.3 | 0.00 | 0.33 | 0.00 | 67 | 1011.8 |
| 20260508164705 | 21 | 106 | 4.8 | 12.9 | 0.00 | 0.33 | 0.00 | 65 | 1011.7 |
| 20260508164205 | 21 | 89 | 3.2 | 9.7 | 0.00 | 0.33 | 0.00 | 64 | 1011.7 |
| 20260508163704 | 21 | 76 | 3.2 | 12.9 | 0.00 | 0.33 | 0.00 | 64 | 1011.7 |
| 20260508163204 | 21 | 16 | 4.8 | 14.5 | 0.00 | 0.33 | 0.00 | 63 | 1011.7 |
| 20260508161205 | 21 | 76 | 4.8 | 9.7 | 0.00 | 0.33 | 0.00 | 62 | 1011.8 |
| 20260508160705 | 21 | 106 | 4.8 | 11.3 | 0.00 | 0.33 | 0.00 | 61 | 1011.7 |
| 20260508160205 | 21 | 18 | 6.4 | 19.3 | 0.00 | 0.33 | 0.00 | 62 | 1011.8 |
| 20260508154705 | 21 | 16 | 6.4 | 14.5 | 0.00 | 0.33 | 0.00 | 62 | 1011.7 |
| 20260508154205 | 21 | 12 | 8.0 | 11.3 | 0.00 | 0.33 | 0.00 | 61 | 1011.6 |
| 20260508153704 | 21 | 25 | 4.8 | 8.0 | 0.00 | 0.33 | 0.00 | 62 | 1011.6 |
| 20260508153205 | 21 | 82 | 3.2 | 11.3 | 0.00 | 0.33 | 0.00 | 62 | 1011.6 |
| 20260508151705 | 21 | 51 | 1.6 | 4.8 | 0.00 | 0.33 | 0.00 | 62 | 1011.5 |
| 20260508151205 | 21 | 13 | 3.2 | 8.0 | 0.00 | 0.33 | 0.00 | 62 | 1011.5 |
| 20260508150705 | 20 | 13 | 4.8 | 12.9 | 0.00 | 0.33 | 0.00 | 65 | 1011.6 |
| 20260508150204 | 21 | 25 | 4.8 | 11.3 | 0.00 | 0.33 | 0.00 | 63 | 1011.7 |
| 20260508144705 | 20 | 37 | 4.8 | 14.5 | 0.00 | 0.33 | 0.00 | 64 | 1011.8 |
| 20260508144205 | 21 | 45 | 3.2 | 14.5 | 0.00 | 0.33 | 0.00 | 65 | 1011.8 |